KGCY/GCY METAR and TAF weather

Enter ICAO airport designator
Station Type Date Time Source
KGCY METAR 2022/11/26 09:55 UTC NOAA

KGCY 260955Z AUTO 03009KT 10SM CLR 07/04 A3015 RMK A01


Station Type Date Time Source
KGCY Decoded METAR 2022/11/26 09:55 UTC NOAA

Station name not available
Nov 26, 2022 - 04:55 AM EST / 2022.11.26 0955 UTC
Wind: from the NNE (030 degrees) at 10 MPH (9 KT):0
Visibility: 10 mile(s):0
Sky conditions: clear
Temperature: 44 F (7 C)
Dew Point: 39 F (4 C)
Relative Humidity: 81%
Pressure (altimeter): 30.15 in. Hg (1020 hPa)
ob: KGCY 260955Z AUTO 03009KT 10SM CLR 07/04 A3015 RMK A01
cycle: 10

Station Type Date Time Source
KGCY TAF UTC NOAA

Error!

Example: see airport list